createdAt,value
2019-02-23T00:00:34.619Z,91.3
2019-02-23T00:01:34.526Z,91.3
2019-02-23T00:02:34.426Z,91.3
2019-02-23T00:03:34.762Z,91.6
2019-02-23T00:04:34.657Z,91.3
2019-02-23T00:05:34.543Z,90.8
2019-02-23T00:23:31.108Z,88.4
2019-02-23T00:24:31.016Z,89.2
2019-02-23T00:25:30.974Z,89.8
2019-02-23T00:26:30.871Z,90
2019-02-23T00:27:30.760Z,90
2019-02-23T00:28:30.656Z,90.3
2019-02-23T00:29:30.572Z,90.3
2019-02-23T00:30:30.465Z,90.4
2019-02-23T00:31:30.372Z,90.4
2019-02-23T00:32:30.270Z,90.5
2019-02-23T00:33:30.592Z,90.6
2019-02-23T00:34:30.489Z,90.7
2019-02-23T00:35:30.414Z,90.8
2019-02-23T00:36:30.316Z,90.8
2019-02-23T00:37:30.264Z,90.9
2019-02-23T00:38:30.182Z,91
2019-02-23T00:39:30.078Z,91
2019-02-23T00:40:29.985Z,91.1
2019-02-23T00:41:29.856Z,91.2
2019-02-23T00:42:29.744Z,91.2
2019-02-23T00:43:30.116Z,91.2
2019-02-23T00:44:30.024Z,91.3
2019-02-23T00:45:29.955Z,91.3
2019-02-23T00:46:29.840Z,91.4
2019-02-23T00:47:29.714Z,91.3
2019-02-23T00:48:29.620Z,91.4
2019-02-23T00:49:37.248Z,91.5
2019-02-23T00:50:37.267Z,91.5
2019-02-23T00:51:37.170Z,91.5
2019-02-23T00:52:37.042Z,91.5
2019-02-23T00:53:37.430Z,91.5
2019-02-23T00:54:37.412Z,91.5
2019-02-23T00:55:37.344Z,91.3
2019-02-23T01:03:35.906Z,90.1
2019-02-23T01:04:35.795Z,90.5
2019-02-23T01:05:35.666Z,90.6
2019-02-23T01:06:35.609Z,90.6
2019-02-23T01:07:35.532Z,90.7
2019-02-23T01:08:35.432Z,90.7
2019-02-23T01:09:35.331Z,90.8
2019-02-23T01:10:35.240Z,90.9
2019-02-23T01:11:35.140Z,90.9
2019-02-23T01:12:35.044Z,90.9
2019-02-23T01:13:35.378Z,90.9
2019-02-23T01:14:35.272Z,91
2019-02-23T01:15:35.171Z,91.1
2019-02-23T01:16:35.057Z,91.1
2019-02-23T01:17:34.973Z,91.2
2019-02-23T01:18:34.903Z,91.2
2019-02-23T01:19:34.787Z,91.3
2019-02-23T01:20:34.746Z,91.3
2019-02-23T01:21:34.634Z,91.3
2019-02-23T01:22:34.553Z,91.4
2019-02-23T01:23:34.866Z,91.4
2019-02-23T01:24:34.743Z,91.5
2019-02-23T01:25:34.640Z,91.1
2019-02-23T01:33:33.130Z,90.1
2019-02-23T01:34:33.092Z,90.4
2019-02-23T01:35:32.971Z,90.5
2019-02-23T01:36:32.853Z,90.7
2019-02-23T01:37:32.761Z,90.7
2019-02-23T01:38:32.660Z,90.7
2019-02-23T01:39:32.541Z,90.6
2019-02-23T01:40:32.463Z,90.7
2019-02-23T01:41:32.358Z,90.7
2019-02-23T01:42:32.248Z,90.7
2019-02-23T01:43:32.651Z,90.8
2019-02-23T01:44:32.529Z,90.8
2019-02-23T01:45:43.278Z,90.9
2019-02-23T01:46:43.190Z,91
2019-02-23T01:47:43.104Z,91.1
2019-02-23T01:48:43.095Z,91
2019-02-23T01:49:42.989Z,91.1
2019-02-23T01:50:42.873Z,91
2019-02-23T01:51:42.767Z,91.1
2019-02-23T01:52:42.681Z,91.3
2019-02-23T01:53:42.996Z,91.2
2019-02-23T01:54:42.907Z,91.3
2019-02-23T01:55:42.803Z,91
2019-02-23T01:59:42.186Z,90.2
2019-02-23T02:03:41.685Z,89.5
2019-02-23T02:04:41.611Z,90.1
2019-02-23T02:05:41.509Z,90.2
2019-02-23T02:06:41.494Z,90.3
2019-02-23T02:07:41.384Z,90.4
2019-02-23T02:08:41.283Z,90.4
2019-02-23T02:09:41.171Z,90.4
2019-02-23T02:10:41.095Z,90.4
2019-02-23T02:11:40.995Z,90.6
2019-02-23T02:12:40.883Z,90.7
2019-02-23T02:13:41.213Z,90.8
2019-02-23T02:14:41.099Z,90.8
2019-02-23T02:15:41.035Z,90.8
2019-02-23T02:16:41.011Z,90.8
2019-02-23T02:17:40.919Z,91
2019-02-23T02:18:40.811Z,90.9
2019-02-23T02:19:40.711Z,90.8
2019-02-23T02:20:40.621Z,90.9
2019-02-23T02:21:40.561Z,91
2019-02-23T02:22:40.451Z,90.9
2019-02-23T02:23:40.803Z,91
2019-02-23T02:24:40.687Z,91
2019-02-23T02:25:40.573Z,91.1
2019-02-23T02:26:40.500Z,91.2
2019-02-23T02:27:40.394Z,91.2
2019-02-23T02:28:40.301Z,91.2
2019-02-23T02:29:40.225Z,91.1
2019-02-23T02:30:40.127Z,91.1
2019-02-23T02:31:40.043Z,91.1
2019-02-23T02:32:39.946Z,91.2
2019-02-23T02:33:40.401Z,91.2
2019-02-23T02:34:40.298Z,91.4
2019-02-23T02:35:40.214Z,91.3
2019-02-23T02:36:40.113Z,91.4
2019-02-23T02:37:40.066Z,91.3
2019-02-23T02:38:39.976Z,91.3
2019-02-23T02:39:39.901Z,91.3
2019-02-23T02:40:39.863Z,91.3
2019-02-23T02:41:39.779Z,91.3
2019-02-23T02:42:39.685Z,91.4
2019-02-23T02:43:40.178Z,91.4
2019-02-23T02:44:40.070Z,91.4
2019-02-23T02:45:39.988Z,91.6
2019-02-23T02:46:39.912Z,91.6
2019-02-23T02:47:39.943Z,91.6
2019-02-23T02:48:39.863Z,91.6
2019-02-23T02:49:39.771Z,91.5
2019-02-23T02:50:39.664Z,91.6
2019-02-23T02:51:39.567Z,91.5
2019-02-23T02:52:39.448Z,91.6
2019-02-23T02:53:39.848Z,91.7
2019-02-23T02:54:39.834Z,91.7
2019-02-23T02:55:39.736Z,91.7
2019-02-23T02:56:39.701Z,91.6
2019-02-23T02:57:39.598Z,91.6
2019-02-23T02:58:39.501Z,91.7
2019-02-23T02:59:39.432Z,91.7
2019-02-23T03:00:39.328Z,91.6
2019-02-23T03:01:39.234Z,91.6
2019-02-23T03:02:39.128Z,91.7
2019-02-23T03:03:39.462Z,91.7
2019-02-23T03:04:39.372Z,91.7
2019-02-23T03:33:35.452Z,88.7
2019-02-23T03:34:35.392Z,89.6
2019-02-23T03:35:35.286Z,89.9
2019-02-23T03:36:35.257Z,90
2019-02-23T03:37:35.205Z,90
2019-02-23T03:38:35.104Z,89.9
2019-02-23T03:39:34.984Z,90.1
2019-02-23T03:40:34.878Z,90.1
2019-02-23T03:41:34.798Z,90.2
2019-02-23T03:42:34.692Z,90.4
2019-02-23T03:43:35.183Z,90.6
2019-02-23T03:44:35.082Z,90.7
2019-02-23T03:53:33.472Z,89.9
2019-02-23T03:54:33.358Z,90.3
2019-02-23T03:55:33.263Z,90.5
2019-02-23T03:56:33.154Z,90.5
2019-02-23T03:57:33.146Z,90.6
2019-02-23T03:58:33.067Z,90.8
2019-02-23T03:59:32.963Z,90.9
2019-02-23T04:00:32.923Z,91
2019-02-23T04:01:32.818Z,91.1
2019-02-23T04:02:32.748Z,91.2
2019-02-23T04:03:33.117Z,91.2
2019-02-23T04:04:33.008Z,91.3
2019-02-23T04:13:31.346Z,90.1
2019-02-23T04:14:31.274Z,90.4
2019-02-23T04:15:31.191Z,90.5
2019-02-23T04:16:31.113Z,90.6
2019-02-23T04:17:31.028Z,90.7
2019-02-23T04:18:30.907Z,90.7
2019-02-23T04:19:30.809Z,90.7
2019-02-23T04:20:30.690Z,90.7
2019-02-23T04:21:30.598Z,90.8
2019-02-23T04:22:30.482Z,90.9
2019-02-23T04:23:30.858Z,91.1
2019-02-23T04:24:30.792Z,91.2
2019-02-23T04:25:30.680Z,91.2
2019-02-23T04:26:30.575Z,91.1
2019-02-23T04:27:30.500Z,91.2
2019-02-23T04:28:30.397Z,91.3
2019-02-23T04:29:30.334Z,91.4
2019-02-23T04:30:30.306Z,91.3
2019-02-23T04:31:30.206Z,91.6
2019-02-23T04:32:30.104Z,91.6
2019-02-23T04:33:30.419Z,91.6
2019-02-23T04:34:30.318Z,91.4
2019-02-23T04:43:28.547Z,90.1
2019-02-23T04:44:28.495Z,90.4
2019-02-23T04:45:28.401Z,90.6
2019-02-23T04:46:28.421Z,90.6
2019-02-23T04:47:28.330Z,90.7
2019-02-23T04:48:28.270Z,90.8
2019-02-23T04:49:28.181Z,90.8
2019-02-23T04:50:28.089Z,90.7
2019-02-23T04:51:27.999Z,90.9
2019-02-23T04:52:27.919Z,91
2019-02-23T04:53:28.265Z,91.1
2019-02-23T04:54:28.179Z,91.1
2019-02-23T04:55:28.059Z,91.1
2019-02-23T04:56:27.987Z,91.2
2019-02-23T04:57:27.895Z,91.2
2019-02-23T04:58:27.783Z,91.4
2019-02-23T04:59:27.695Z,91.3
2019-02-23T05:00:27.599Z,91.5
2019-02-23T05:01:27.509Z,91.6
2019-02-23T05:02:27.426Z,91.4
2019-02-23T05:03:27.798Z,91.5
2019-02-23T05:04:27.685Z,91.5
2019-02-23T05:05:27.619Z,91.8
2019-02-23T05:06:27.529Z,91.7
2019-02-23T05:07:27.462Z,91.7
2019-02-23T05:08:27.352Z,91.6
2019-02-23T05:09:27.289Z,91.6
2019-02-23T05:10:27.188Z,91.6
2019-02-23T05:11:27.086Z,91.6
2019-02-23T05:12:26.986Z,91.7
2019-02-23T05:13:27.343Z,91.7
2019-02-23T05:14:27.224Z,91.7
2019-02-23T05:15:27.115Z,91.8
2019-02-23T05:16:27.085Z,91.8
2019-02-23T05:17:27.006Z,91.9
2019-02-23T05:18:26.895Z,91.7
2019-02-23T05:19:26.813Z,92.1
2019-02-23T05:20:26.718Z,91.8
2019-02-23T05:21:27.679Z,91.7
2019-02-23T05:22:27.595Z,91.9
2019-02-23T05:23:27.998Z,91.9
2019-02-23T05:24:27.903Z,91.9
2019-02-23T05:25:27.793Z,92
2019-02-23T05:26:27.716Z,92
2019-02-23T05:27:27.629Z,92
2019-02-23T05:28:27.549Z,92.2
2019-02-23T05:29:27.423Z,92.2
2019-02-23T05:30:27.332Z,92.6
2019-02-23T05:31:27.243Z,92.2
2019-02-23T05:32:27.119Z,92.2
2019-02-23T05:33:27.529Z,92
2019-02-23T05:34:27.442Z,92.1
2019-02-23T05:35:27.345Z,92.2
2019-02-23T05:36:27.225Z,92.2
2019-02-23T05:37:27.108Z,92.2
2019-02-23T05:38:27.005Z,92
2019-02-23T05:39:26.923Z,92.2
2019-02-23T05:40:26.866Z,92.2
2019-02-23T05:41:26.769Z,92.1
2019-02-23T05:42:26.684Z,92.3
2019-02-23T05:43:31.633Z,92.2
2019-02-23T05:44:31.511Z,91.9
2019-02-23T05:53:39.621Z,90.5
2019-02-23T05:54:39.539Z,90.9
2019-02-23T05:55:39.452Z,90.9
2019-02-23T05:56:39.409Z,91
2019-02-23T05:57:39.305Z,91
2019-02-23T05:58:39.189Z,91.1
2019-02-23T05:59:39.073Z,91.2
2019-02-23T06:00:39.009Z,91.2
2019-02-23T06:01:38.911Z,91.3
2019-02-23T06:02:38.811Z,91.3
2019-02-23T06:03:39.237Z,91.4
2019-02-23T06:13:37.300Z,90.1
2019-02-23T06:14:37.190Z,90.4
2019-02-23T06:15:37.115Z,90.5
2019-02-23T06:16:37.047Z,90.5
2019-02-23T06:17:36.974Z,90.5
2019-02-23T06:18:36.859Z,90.6
2019-02-23T06:19:36.893Z,90.8
2019-02-23T06:20:36.777Z,90.8
2019-02-23T06:21:36.675Z,90.8
2019-02-23T06:22:36.613Z,91.1
2019-02-23T06:23:36.969Z,91.1
2019-02-23T06:24:36.875Z,91.1
2019-02-23T06:25:36.840Z,91.3
2019-02-23T06:26:36.754Z,91.3
2019-02-23T06:27:36.671Z,91.2
2019-02-23T06:28:36.565Z,91.1
2019-02-23T06:29:36.477Z,91.3
2019-02-23T06:30:36.403Z,91.4
2019-02-23T06:31:36.325Z,91.5
2019-02-23T06:32:36.464Z,91.6
2019-02-23T06:33:36.873Z,91.6
2019-02-23T06:34:36.777Z,91.6
2019-02-23T06:35:36.700Z,91.7
2019-02-23T06:36:36.594Z,91.8
2019-02-23T06:37:36.499Z,91.8
2019-02-23T06:38:36.420Z,91.8
2019-02-23T06:39:36.317Z,91.7
2019-02-23T06:40:36.209Z,91.8
2019-02-23T06:41:36.094Z,91.7
2019-02-23T06:42:35.993Z,91.8
2019-02-23T06:43:36.434Z,91.7
2019-02-23T06:44:36.346Z,91.8
2019-02-23T06:45:36.249Z,91.9
2019-02-23T06:46:36.136Z,92
2019-02-23T06:47:36.035Z,92
2019-02-23T06:48:35.952Z,92
2019-02-23T06:49:35.880Z,92.1
2019-02-23T06:50:35.779Z,92.1
2019-02-23T06:51:35.676Z,92.1
2019-02-23T06:52:35.564Z,92.2
2019-02-23T06:53:35.907Z,92.1
2019-02-23T06:54:35.815Z,92.3
2019-02-23T06:55:35.712Z,92.3
2019-02-23T06:56:35.609Z,92.3
2019-02-23T06:57:35.536Z,92.2
2019-02-23T06:58:35.448Z,92.2
2019-02-23T06:59:35.367Z,92.2
2019-02-23T07:00:35.267Z,92.3
2019-02-23T07:01:35.175Z,92.3
2019-02-23T07:02:35.061Z,92.2
2019-02-23T07:03:35.418Z,92.3
2019-02-23T07:04:35.313Z,92.4
2019-02-23T07:05:35.212Z,92.2
2019-02-23T07:06:35.152Z,92.3
2019-02-23T07:07:35.064Z,92.3
2019-02-23T07:08:34.979Z,92.3
2019-02-23T07:09:34.921Z,92.4
2019-02-23T07:10:34.820Z,92.5
2019-02-23T07:11:34.704Z,92.6
2019-02-23T07:12:34.606Z,92.5
2019-02-23T07:13:34.952Z,92.5
2019-02-23T07:14:34.844Z,92.3
2019-02-23T07:15:34.740Z,92.4
2019-02-23T07:16:34.640Z,92.3
2019-02-23T07:17:34.546Z,92.2
2019-02-23T07:18:34.442Z,92.2
2019-02-23T07:19:34.350Z,92
2019-02-23T07:20:45.180Z,92
2019-02-23T07:21:45.072Z,92.1
2019-02-23T07:22:44.962Z,92
2019-02-23T07:23:45.298Z,92.2
2019-02-23T07:43:41.081Z,89.2
2019-02-23T07:44:41.005Z,90
2019-02-23T07:45:40.904Z,90.2
2019-02-23T07:46:40.837Z,90.3
2019-02-23T07:47:40.722Z,90.4
2019-02-23T07:48:40.650Z,90.4
2019-02-23T07:49:40.526Z,90.4
2019-02-23T07:50:40.443Z,90.7
2019-02-23T07:51:40.360Z,90.8
2019-02-23T07:52:40.266Z,90.8
2019-02-23T07:53:40.604Z,90.8
2019-02-23T07:54:40.508Z,90.9
2019-02-23T07:55:45.333Z,90.8
2019-02-23T07:56:45.294Z,90.8
2019-02-23T07:57:45.218Z,91
2019-02-23T07:58:45.115Z,91.2
2019-02-23T07:59:45.002Z,91.1
2019-02-23T08:00:44.884Z,91.1
2019-02-23T08:01:44.786Z,91.3
2019-02-23T08:02:44.702Z,91.5
2019-02-23T08:03:45.016Z,91.2
2019-02-23T08:04:44.920Z,91.2
2019-02-23T08:05:44.832Z,91.2
2019-02-23T08:06:44.722Z,91.2
2019-02-23T08:07:44.614Z,91.3
2019-02-23T08:08:44.525Z,91.3
2019-02-23T08:09:44.433Z,91.5
2019-02-23T08:10:44.346Z,91.5
2019-02-23T08:11:44.285Z,91.4
2019-02-23T08:12:44.196Z,91.4
2019-02-23T08:13:44.545Z,91.6
2019-02-23T08:14:44.451Z,91.6
2019-02-23T08:15:44.344Z,91.6
2019-02-23T08:16:44.233Z,91.5
2019-02-23T08:17:44.138Z,91.3
2019-02-23T08:18:44.077Z,91.3
2019-02-23T08:19:43.971Z,91.3
2019-02-23T08:20:43.896Z,91.3
2019-02-23T08:21:43.848Z,91.4
2019-02-23T08:22:43.849Z,91.3
2019-02-23T08:23:44.169Z,91.7
2019-02-23T08:24:44.095Z,91.5
2019-02-23T08:25:43.981Z,91.3
2019-02-23T08:26:43.873Z,91.5
2019-02-23T08:27:43.798Z,91.2
2019-02-23T08:28:43.698Z,91.3
2019-02-23T08:29:43.605Z,91.2
2019-02-23T08:30:43.531Z,91.1
2019-02-23T08:31:43.430Z,91.2
2019-02-23T08:32:43.315Z,91.5
2019-02-23T08:33:43.653Z,91.2
2019-02-23T08:34:43.547Z,91.3
2019-02-23T08:35:43.463Z,91.3
2019-02-23T08:36:43.429Z,91.3
2019-02-23T08:37:43.336Z,91.4
2019-02-23T08:38:43.240Z,91.3
2019-02-23T08:39:43.145Z,91.3
2019-02-23T08:40:43.047Z,91.2
2019-02-23T08:41:44.022Z,91.2
2019-02-23T08:42:43.948Z,91.1
2019-02-23T08:43:44.306Z,90.7
2019-02-23T08:44:44.189Z,91.1
2019-02-23T08:45:44.113Z,91.1
2019-02-23T08:46:44.033Z,90.9
2019-02-23T08:47:44.037Z,91
2019-02-23T08:48:43.943Z,90.9
2019-02-23T08:49:43.855Z,90.9
2019-02-23T08:50:43.774Z,90.7
2019-02-23T08:51:43.661Z,90.9
2019-02-23T08:52:51.001Z,90.8
2019-02-23T08:53:51.305Z,90.8
2019-02-23T08:54:51.201Z,90.4
2019-02-23T09:13:48.325Z,87
2019-02-23T09:14:48.240Z,87.8
2019-02-23T09:15:48.131Z,88.4
2019-02-23T09:16:48.073Z,88.3
2019-02-23T09:17:47.979Z,88.4
2019-02-23T09:18:47.890Z,89
2019-02-23T09:19:47.772Z,89.1
2019-02-23T09:20:47.663Z,89.2
2019-02-23T09:21:47.551Z,89.2
2019-02-23T09:22:47.425Z,89.4
2019-02-23T09:23:47.768Z,89.2
2019-02-23T09:24:47.679Z,89.8
2019-02-23T09:25:47.599Z,89.8
2019-02-23T09:26:47.501Z,89.9
2019-02-23T09:27:47.407Z,90
2019-02-23T09:28:47.322Z,89.9
2019-02-23T09:29:47.271Z,89.9
2019-02-23T09:30:47.164Z,89.8
2019-02-23T09:31:47.046Z,90
2019-02-23T09:32:46.934Z,90.1
2019-02-23T09:33:47.256Z,90.1
2019-02-23T09:34:47.183Z,90.2
2019-02-23T09:35:47.069Z,90.3
2019-02-23T09:36:47.013Z,90.1
2019-02-23T09:37:46.931Z,90.1
2019-02-23T09:38:46.838Z,90.4
2019-02-23T09:39:46.746Z,90.4
2019-02-23T09:40:46.647Z,90.4
2019-02-23T09:41:46.541Z,90.3
2019-02-23T09:42:46.445Z,90.4
2019-02-23T09:43:47.990Z,90.6
2019-02-23T09:44:47.904Z,90.7
2019-02-23T09:45:47.775Z,90.5
2019-02-23T09:46:47.670Z,90.3
2019-02-23T09:47:47.568Z,90.3
2019-02-23T09:48:47.449Z,90.4
2019-02-23T09:49:47.341Z,90.3
2019-02-23T09:50:47.235Z,90.5
2019-02-23T09:51:47.124Z,90.5
2019-02-23T09:52:47.012Z,90.4
2019-02-23T09:53:47.316Z,90.6
2019-02-23T09:54:47.222Z,90.2
2019-02-23T09:55:47.154Z,90.2
2019-02-23T09:56:47.053Z,90.2
2019-02-23T09:57:46.944Z,90.2
2019-02-23T09:58:46.816Z,90.6
2019-02-23T09:59:46.712Z,90.2
2019-02-23T10:00:46.628Z,90
2019-02-23T10:01:46.582Z,90.3
2019-02-23T10:02:46.496Z,90.3
2019-02-23T10:03:46.846Z,90
2019-02-23T10:13:44.796Z,85.8
2019-02-23T10:14:44.688Z,86.6
2019-02-23T10:15:44.578Z,86.4
2019-02-23T10:16:44.524Z,86.4
2019-02-23T10:17:44.428Z,86.9
2019-02-23T10:18:44.401Z,87.1
2019-02-23T10:19:44.290Z,87.1
2019-02-23T10:20:44.198Z,87.4
2019-02-23T10:21:44.086Z,87.7
2019-02-23T10:22:44.006Z,87.9
2019-02-23T10:23:52.412Z,86.9
2019-02-23T10:24:52.310Z,87.3
2019-02-23T10:25:52.197Z,87.8
2019-02-23T10:26:52.088Z,87.6
2019-02-23T10:27:52.002Z,87.5
2019-02-23T10:28:51.875Z,87.5
2019-02-23T10:29:51.751Z,87.5
2019-02-23T10:30:51.658Z,87.4
2019-02-23T10:31:51.571Z,87.4
2019-02-23T10:32:51.490Z,87.7
2019-02-23T10:33:51.824Z,87.8
2019-02-23T10:34:51.708Z,87.7
2019-02-23T10:35:51.602Z,87
2019-02-23T10:36:51.488Z,87.4
2019-02-23T10:37:51.414Z,87.5
2019-02-23T10:38:51.304Z,87.6
2019-02-23T10:39:51.209Z,87.4
2019-02-23T10:40:51.127Z,87.4
2019-02-23T10:41:51.022Z,87.4
2019-02-23T10:42:50.923Z,86.8
2019-02-23T10:43:51.256Z,87.2
2019-02-23T10:44:51.139Z,87.2
2019-02-23T10:45:51.058Z,87
2019-02-23T10:46:50.944Z,87.1
2019-02-23T10:47:51.056Z,86.6
2019-02-23T10:48:50.971Z,86.6
2019-02-23T10:49:50.876Z,87
2019-02-23T10:50:50.776Z,87
2019-02-23T10:51:50.688Z,86.4
2019-02-23T10:52:50.568Z,86.1
2019-02-23T10:53:50.879Z,86.6
2019-02-23T10:54:50.796Z,86.7
2019-02-23T10:55:50.703Z,86.1
2019-02-23T11:03:49.169Z,83.3
2019-02-23T11:04:49.053Z,84
2019-02-23T11:05:48.957Z,84.2
2019-02-23T11:06:48.848Z,84.1
2019-02-23T11:07:48.752Z,83.9
2019-02-23T11:08:48.727Z,83.6
2019-02-23T11:09:48.623Z,83.2
2019-02-23T11:10:48.524Z,83.6
2019-02-23T11:11:49.143Z,83
2019-02-23T11:12:49.118Z,83.1
2019-02-23T11:13:49.430Z,83.3
2019-02-23T11:14:49.320Z,83.6
2019-02-23T11:15:49.236Z,83.6
2019-02-23T11:16:49.116Z,84.3
2019-02-23T11:17:48.992Z,84.7
2019-02-23T11:18:48.902Z,84.1
2019-02-23T11:19:48.819Z,84.3
2019-02-23T11:20:48.736Z,83.8
2019-02-23T11:21:48.636Z,83.4
2019-02-23T11:22:48.536Z,84.1
2019-02-23T11:23:48.855Z,84.1
2019-02-23T11:24:48.770Z,84.2
2019-02-23T11:25:48.697Z,84.3
2019-02-23T11:26:48.637Z,84.3
2019-02-23T11:27:48.582Z,84.5
2019-02-23T11:28:48.466Z,83.6
2019-02-23T11:29:48.373Z,82.8
2019-02-23T11:30:48.269Z,83.6
2019-02-23T11:31:48.296Z,82.5
2019-02-23T11:32:48.184Z,82.9
2019-02-23T11:33:48.585Z,83.1
2019-02-23T11:34:48.486Z,84.1
2019-02-23T11:35:48.429Z,84.4
2019-02-23T11:36:48.332Z,84.9
2019-02-23T11:37:48.264Z,84
2019-02-23T11:38:48.162Z,84.2
2019-02-23T11:39:48.059Z,84.2
2019-02-23T11:40:47.967Z,84.8
2019-02-23T11:41:47.879Z,84
2019-02-23T11:42:47.859Z,83.3
2019-02-23T11:43:48.213Z,84
2019-02-23T11:44:48.101Z,84.3
2019-02-23T11:45:47.985Z,84.5
2019-02-23T11:47:01.121Z,84.5
2019-02-23T11:48:01.035Z,84.7
2019-02-23T11:49:00.914Z,84.6
2019-02-23T11:50:01.049Z,84.6
2019-02-23T11:51:00.939Z,84.7
2019-02-23T11:52:00.829Z,84.3
2019-02-23T11:53:00.749Z,83.6
2019-02-23T11:54:01.098Z,83.4
2019-02-23T11:55:01.073Z,83.6
2019-02-23T11:56:01.060Z,83.2
2019-02-23T11:57:00.954Z,83.6
2019-02-23T11:58:00.874Z,83.7
2019-02-23T11:59:00.763Z,82.9
2019-02-23T12:00:00.771Z,83
2019-02-23T12:01:00.644Z,83.4
2019-02-23T12:02:00.530Z,83.2
2019-02-23T12:03:00.439Z,82.1
2019-02-23T12:04:00.769Z,82.8
2019-02-23T12:05:00.803Z,83.1
2019-02-23T12:06:00.722Z,82.4
2019-02-23T12:07:00.611Z,81.9
2019-02-23T12:08:00.525Z,81.8
2019-02-23T12:09:00.407Z,81.8
2019-02-23T12:10:00.427Z,81.7
2019-02-23T12:11:00.318Z,81.5
2019-02-23T12:12:00.247Z,80.9
2019-02-23T12:13:00.244Z,81.9
2019-02-23T12:14:00.569Z,82.4
2019-02-23T12:15:00.592Z,82.2
2019-02-23T12:16:00.487Z,82
2019-02-23T12:17:00.359Z,81.9
2019-02-23T12:18:00.314Z,81.3
2019-02-23T12:19:00.215Z,81.7
2019-02-23T12:20:00.347Z,81.2
2019-02-23T12:21:00.275Z,81.7
2019-02-23T12:22:00.176Z,81.6
2019-02-23T12:23:00.073Z,81.4
2019-02-23T12:24:07.057Z,81.5
2019-02-23T12:25:06.944Z,81.9
2019-02-23T12:26:06.816Z,82
2019-02-23T12:27:06.713Z,81.4
2019-02-23T12:28:06.619Z,81.9
2019-02-23T12:29:06.541Z,81.8
2019-02-23T12:30:06.444Z,82.1
2019-02-23T12:31:06.332Z,81.8
2019-02-23T12:32:06.229Z,81.3
2019-02-23T12:33:06.196Z,81.6
2019-02-23T12:34:06.546Z,81.7
2019-02-23T12:35:06.463Z,81.9
2019-02-23T12:36:06.419Z,80.7
2019-02-23T12:37:06.305Z,81.2
2019-02-23T12:38:06.203Z,80.4
2019-02-23T12:39:06.113Z,79.9
2019-02-23T12:40:06.020Z,81.1
2019-02-23T12:41:05.923Z,80.6
2019-02-23T12:42:05.815Z,79.8
2019-02-23T12:43:05.698Z,79.1
2019-02-23T12:44:06.012Z,79.3
2019-02-23T12:45:05.903Z,78.8
2019-02-23T12:46:05.832Z,79.3
2019-02-23T12:47:05.731Z,79.4
2019-02-23T12:48:05.615Z,78.7
2019-02-23T12:49:05.529Z,78.9
2019-02-23T12:50:05.433Z,78.7
2019-02-23T12:51:05.344Z,78
2019-02-23T12:52:05.237Z,78.1
2019-02-23T12:53:05.119Z,77.8
2019-02-23T12:54:05.465Z,76.2
2019-02-23T12:55:16.974Z,76.1
2019-02-23T12:56:16.887Z,76
2019-02-23T12:57:16.785Z,75.1
2019-02-23T12:58:16.674Z,75.7
2019-02-23T12:59:16.561Z,74.9
2019-02-23T13:00:16.450Z,75
2019-02-23T13:01:16.347Z,75.4
2019-02-23T13:02:16.317Z,75.3
2019-02-23T13:03:16.203Z,75.4
2019-02-23T13:04:16.564Z,74.9
2019-02-23T13:05:16.466Z,75.7
2019-02-23T13:06:16.351Z,77
2019-02-23T13:07:16.258Z,76.4
2019-02-23T13:08:16.145Z,76.6
2019-02-23T13:09:16.063Z,75.5
2019-02-23T13:10:15.970Z,75.8
2019-02-23T13:11:15.873Z,75.8
2019-02-23T13:12:15.768Z,76
2019-02-23T13:13:15.650Z,76.3
2019-02-23T13:14:15.955Z,74.7
2019-02-23T13:15:15.841Z,76.1
2019-02-23T13:16:15.742Z,75.7
2019-02-23T13:34:14.694Z,69.7
2019-02-23T13:35:14.576Z,70.7
2019-02-23T13:36:14.472Z,70.6
2019-02-23T13:37:14.384Z,71
2019-02-23T13:38:14.272Z,70.1
2019-02-23T13:39:14.193Z,70.9
2019-02-23T13:40:14.088Z,71.2
2019-02-23T13:41:14.006Z,70.8
2019-02-23T13:42:13.892Z,70.5
2019-02-23T13:43:13.787Z,69.8
2019-02-23T13:44:14.162Z,69.9
2019-02-23T13:45:14.075Z,71
2019-02-23T13:46:13.973Z,71.3
2019-02-23T13:47:13.866Z,70.2
2019-02-23T13:48:13.752Z,71.4
2019-02-23T13:49:13.656Z,69.6
2019-02-23T13:50:13.566Z,69.9
2019-02-23T13:51:13.469Z,69.9
2019-02-23T13:52:13.369Z,70.5
2019-02-23T13:53:13.324Z,71.1
2019-02-23T13:54:13.637Z,71.3
2019-02-23T13:55:13.539Z,72
2019-02-23T13:56:15.348Z,70.7
2019-02-23T13:57:15.249Z,69.7
2019-02-23T14:04:13.974Z,66.5
2019-02-23T14:05:13.861Z,67.4
2019-02-23T14:06:13.780Z,68
2019-02-23T14:07:13.694Z,65.3
2019-02-23T14:08:13.587Z,64.8
2019-02-23T14:09:13.506Z,64.9
2019-02-23T14:10:13.375Z,65
2019-02-23T14:11:13.252Z,66.2
2019-02-23T14:12:13.161Z,66.7
2019-02-23T14:13:13.067Z,67.2
2019-02-23T14:14:13.410Z,67.3
2019-02-23T14:15:13.296Z,66.4
2019-02-23T14:16:13.192Z,65
2019-02-23T14:17:13.144Z,65.2
2019-02-23T14:18:13.108Z,65.5
2019-02-23T14:19:12.996Z,64.6
2019-02-23T14:20:12.900Z,65.1
2019-02-23T14:21:12.795Z,65.2
2019-02-23T14:22:12.714Z,65.2
2019-02-23T14:23:12.630Z,66
2019-02-23T14:24:12.970Z,66
2019-02-23T14:25:12.866Z,66
2019-02-23T14:26:12.778Z,65.4
2019-02-23T14:27:12.690Z,64.9
2019-02-23T14:28:12.626Z,65.1
2019-02-23T14:29:12.517Z,64.8
2019-02-23T14:30:12.420Z,65.9
2019-02-23T14:31:12.318Z,65.5
2019-02-23T14:32:12.186Z,65.3
2019-02-23T14:33:12.082Z,65.8
2019-02-23T14:34:12.440Z,65.9
2019-02-23T14:35:12.327Z,65.6
2019-02-23T14:36:12.204Z,65.9
2019-02-23T14:37:12.111Z,66.5
2019-02-23T14:38:12.017Z,65.7
2019-02-23T14:39:13.802Z,65.4
2019-02-23T14:40:13.839Z,65.8
2019-02-23T14:41:13.742Z,65.9
2019-02-23T14:42:13.923Z,66.4
2019-02-23T14:43:13.933Z,66
2019-02-23T14:44:14.495Z,65.5
2019-02-23T14:45:14.387Z,66
2019-02-23T14:46:14.316Z,65.3
2019-02-23T14:47:14.274Z,64.6
2019-02-23T14:48:14.307Z,65.5
2019-02-23T14:49:17.053Z,65.4
2019-02-23T14:50:16.993Z,65.9
2019-02-23T14:51:16.955Z,66.3
2019-02-23T14:52:16.923Z,65.6
2019-02-23T14:53:16.858Z,65.7
2019-02-23T14:54:17.415Z,65
2019-02-23T14:55:17.385Z,64.5
2019-02-23T14:56:17.328Z,64.4
2019-02-23T15:04:16.131Z,62.3
2019-02-23T15:05:16.031Z,62.9
2019-02-23T15:06:15.949Z,63.4
2019-02-23T15:07:15.860Z,63.6
2019-02-23T15:08:15.782Z,63.8
2019-02-23T15:09:17.961Z,63.6
2019-02-23T15:10:17.934Z,63.8
2019-02-23T15:11:17.831Z,64.2
2019-02-23T15:12:17.794Z,64
2019-02-23T15:13:17.686Z,64.1
2019-02-23T15:14:18.316Z,64.1
2019-02-23T15:15:18.255Z,64.5
2019-02-23T15:16:18.279Z,63.7
2019-02-23T15:34:38.161Z,60.4
2019-02-23T15:35:38.061Z,61.2
2019-02-23T15:36:37.977Z,61.1
2019-02-23T15:37:37.908Z,61.5
2019-02-23T15:38:37.807Z,60.9
2019-02-23T15:39:37.834Z,61.1
2019-02-23T15:40:37.902Z,61.6
2019-02-23T15:41:37.987Z,62.7
2019-02-23T15:42:38.097Z,61.7
2019-02-23T15:43:38.209Z,61.8
2019-02-23T15:44:38.990Z,62.1
2019-02-23T15:45:39.230Z,62.3
2019-02-23T15:46:39.216Z,62.5
2019-02-23T15:47:39.624Z,62.4
2019-02-23T15:48:39.756Z,62.9
2019-02-23T15:49:39.837Z,63
2019-02-23T15:50:39.974Z,62.9
2019-02-23T15:51:40.162Z,62.7
2019-02-23T15:52:40.687Z,62.7
2019-02-23T15:53:41.078Z,63.2
2019-02-23T15:54:41.649Z,63.5
2019-02-23T15:55:41.566Z,64
2019-02-23T15:56:41.577Z,64.4
2019-02-23T15:57:41.513Z,63.8
2019-02-23T15:58:41.447Z,63.5
2019-02-23T15:59:44.946Z,64.4
2019-02-23T16:00:45.075Z,64.4
2019-02-23T16:01:45.052Z,65
2019-02-23T16:02:44.974Z,63.8
2019-02-23T16:03:44.855Z,65.1
2019-02-23T16:04:45.231Z,63.4
2019-02-23T16:05:45.123Z,63.1
2019-02-23T16:06:45.079Z,62.8
2019-02-23T16:07:45.004Z,64
2019-02-23T16:08:44.917Z,63.6
2019-02-23T16:09:44.836Z,63
2019-02-23T16:10:44.915Z,62.3
2019-02-23T16:11:46.213Z,61.8
2019-02-23T16:12:46.113Z,62.1
2019-02-23T16:13:46.031Z,62.5
2019-02-23T16:14:46.640Z,62.6
2019-02-23T16:15:46.555Z,61.8
2019-02-23T16:16:48.275Z,61.4
2019-02-23T16:17:48.196Z,61.7
2019-02-23T16:18:48.115Z,62.8
2019-02-23T16:19:48.014Z,62.3
2019-02-23T16:20:47.979Z,61.1
2019-02-23T16:21:47.896Z,62.6
2019-02-23T16:22:47.898Z,62.1
2019-02-23T16:23:47.845Z,62.6
2019-02-23T16:24:48.202Z,61.6
2019-02-23T16:25:48.109Z,61.8
2019-02-23T16:26:48.009Z,61.8
2019-02-23T16:27:47.917Z,62
2019-02-23T16:28:47.841Z,61.9
2019-02-23T16:29:47.767Z,60.4
2019-02-23T16:30:47.673Z,59.4
2019-02-23T16:31:47.578Z,58.7
2019-02-23T16:32:47.757Z,58.8
2019-02-23T16:33:47.646Z,59.5
2019-02-23T16:34:48.122Z,59.3
2019-02-23T16:35:48.333Z,59.6
2019-02-23T16:36:48.233Z,59
2019-02-23T16:37:48.203Z,58.6
2019-02-23T16:38:48.122Z,59.1
2019-02-23T16:39:48.057Z,58.8
2019-02-23T16:40:50.974Z,58.6
2019-02-23T16:41:50.885Z,58.6
2019-02-23T16:42:50.818Z,57.9
2019-02-23T16:43:50.708Z,58.3
2019-02-23T16:44:51.094Z,58.2
2019-02-23T16:45:51.008Z,58.2
2019-02-23T16:46:50.948Z,59.4
2019-02-23T16:47:50.872Z,58.5
2019-02-23T16:48:50.943Z,58.5
2019-02-23T16:49:50.871Z,58
2019-02-23T16:50:50.800Z,57.4